Time;durP1;ratioP1;P1;durP2;ratioP2;P2;SDS_P1;SDS_P2;PMS_P1;PMS_P2;Temp;Humidity;BMP_temperature;BMP_pressure;BME280_temperature;BME280_humidity;BME280_pressure;Samples;Min_cycle;Max_cycle;Signal;HPM_P1;HPM_P2
2021/04/30 00:02:19;;;;;;;10.75;8.57;;;;;;;12.70;100.00;97331.72;5072319;28;20036;-75
2021/04/30 00:04:44;;;;;;;10.38;8.52;;;;;;;12.61;100.00;97322.69;5072245;28;20032;-77
2021/04/30 00:07:10;;;;;;;9.65;7.32;;;;;;;12.66;100.00;97333.50;5072103;28;20082;-75
2021/04/30 00:09:36;;;;;;;11.52;7.20;;;;;;;12.77;100.00;97332.06;5071800;28;20664;-75
2021/04/30 00:12:02;;;;;;;9.25;6.35;;;;;;;12.69;100.00;97334.78;5071958;28;20499;-75
2021/04/30 00:14:28;;;;;;;6.63;5.82;;;;;;;12.65;100.00;97331.91;5072062;28;20514;-75
2021/04/30 00:16:53;;;;;;;6.90;5.60;;;;;;;12.74;100.00;97338.19;5072578;28;20024;-75
2021/04/30 00:19:20;;;;;;;5.78;4.30;;;;;;;12.72;100.00;97334.94;5072103;28;20548;-76
2021/04/30 00:21:45;;;;;;;5.53;4.40;;;;;;;12.65;100.00;97326.41;5072112;28;20063;-79
2021/04/30 00:24:12;;;;;;;4.88;4.28;;;;;;;12.66;100.00;97330.75;5072063;28;20524;-75
2021/04/30 00:26:37;;;;;;;5.15;4.32;;;;;;;12.63;100.00;97336.06;5072019;28;20595;-75
2021/04/30 00:29:04;;;;;;;4.38;3.08;;;;;;;12.52;100.00;97323.84;5071582;28;20107;-75
2021/04/30 00:31:29;;;;;;;4.40;3.45;;;;;;;12.62;100.00;97334.47;5072443;28;20028;-77
2021/04/30 00:33:57;;;;;;;6.90;3.20;;;;;;;12.58;100.00;97334.31;5072455;28;20121;-74
2021/04/30 00:36:26;;;;;;;4.47;3.60;;;;;;;12.54;100.00;97327.03;5072983;28;20158;-76
2021/04/30 00:38:52;;;;;;;4.90;3.28;;;;;;;12.56;100.00;97331.06;5072036;28;20587;-75
2021/04/30 00:41:17;;;;;;;4.07;3.67;;;;;;;12.56;100.00;97325.59;5072453;28;20112;-75
2021/04/30 00:43:45;;;;;;;3.17;2.88;;;;;;;12.56;100.00;97325.59;5071170;28;20044;-74
2021/04/30 00:46:11;;;;;;;5.15;3.13;;;;;;;12.53;100.00;97320.75;5064114;28;20021;-75
2021/04/30 00:48:38;;;;;;;4.05;3.65;;;;;;;12.58;100.00;97323.34;5051321;28;20036;-74
2021/04/30 00:51:04;;;;;;;6.35;3.55;;;;;;;12.52;100.00;97324.66;5066525;28;20111;-74
2021/04/30 00:53:29;;;;;;;6.85;4.90;;;;;;;12.50;100.00;97315.91;5071941;28;20171;-74
2021/04/30 00:55:55;;;;;;;5.55;4.45;;;;;;;12.50;100.00;97321.41;5072002;28;20031;-74
2021/04/30 00:58:21;;;;;;;11.20;7.68;;;;;;;12.56;100.00;97325.59;5071355;28;20461;-74
2021/04/30 01:00:46;;;;;;;8.57;6.45;;;;;;;12.58;100.00;97317.88;5070948;28;20036;-74
2021/04/30 01:03:12;;;;;;;8.70;6.85;;;;;;;12.54;100.00;97319.63;5057846;28;20499;-75
2021/04/30 01:05:38;;;;;;;8.10;7.25;;;;;;;12.58;100.00;97328.84;5051701;28;20032;-74
2021/04/30 01:08:06;;;;;;;8.70;7.47;;;;;;;12.54;100.00;97332.53;5051882;28;20080;-75
2021/04/30 01:10:32;;;;;;;9.25;7.00;;;;;;;12.61;100.00;97330.13;5051542;28;20052;-74
2021/04/30 01:12:58;;;;;;;11.90;7.65;;;;;;;12.60;100.00;97332.06;5051158;28;20127;-74
2021/04/30 01:15:24;;;;;;;11.52;8.35;;;;;;;12.58;100.00;97334.31;5050520;28;20525;-74
2021/04/30 01:17:50;;;;;;;12.88;8.00;;;;;;;12.57;100.00;97332.69;5049578;28;20037;-74
2021/04/30 01:20:18;;;;;;;11.95;9.48;;;;;;;12.52;100.00;97332.06;5051105;28;20075;-76
2021/04/30 01:22:46;;;;;;;11.63;8.52;;;;;;;12.54;100.00;97332.53;5051221;28;20036;-74
2021/04/30 01:25:17;;;;;;;11.15;9.95;;;;;;;12.53;100.00;97334.47;5049983;28;20029;-74
2021/04/30 01:27:43;;;;;;;12.70;8.40;;;;;;;12.56;100.00;97331.06;5045921;28;20029;-75
2021/04/30 01:30:13;;;;;;;12.30;9.02;;;;;;;12.55;100.00;97328.66;5050832;28;20479;-77
2021/04/30 01:32:38;;;;;;;11.43;10.18;;;;;;;12.53;100.00;97334.47;5066279;28;20044;-74
2021/04/30 01:35:07;;;;;;;13.75;9.68;;;;;;;12.51;100.00;97334.00;5051041;28;20025;-74
2021/04/30 01:37:32;;;;;;;13.00;9.73;;;;;;;12.54;100.00;97333.34;5052199;28;20389;-75
2021/04/30 01:39:58;;;;;;;11.35;9.60;;;;;;;12.57;100.00;97329.97;5068049;28;20020;-75
2021/04/30 01:42:24;;;;;;;14.85;10.20;;;;;;;12.56;100.00;97339.31;5070745;28;20033;-75
2021/04/30 01:44:49;;;;;;;13.55;9.82;;;;;;;12.57;100.00;97332.69;5071122;28;20048;-75
2021/04/30 01:47:16;;;;;;;13.48;8.60;;;;;;;12.51;100.00;97334.00;5069812;28;20027;-76
2021/04/30 01:49:42;;;;;;;12.05;9.68;;;;;;;12.55;100.00;97343.19;5070735;28;20029;-74
2021/04/30 01:52:07;;;;;;;14.77;10.60;;;;;;;12.55;100.00;97340.47;5070824;28;20024;-75
2021/04/30 01:54:32;;;;;;;15.10;10.07;;;;;;;12.51;100.00;97341.41;5070750;28;20028;-75
2021/04/30 01:56:58;;;;;;;10.50;9.23;;;;;;;12.56;100.00;97342.06;5070645;28;20070;-75
2021/04/30 01:59:23;;;;;;;10.70;8.38;;;;;;;12.64;100.00;97333.03;5069753;28;20484;-75
2021/04/30 02:01:49;;;;;;;10.65;8.45;;;;;;;12.63;100.00;97336.06;5071024;28;20124;-75
2021/04/30 02:04:14;;;;;;;12.13;9.52;;;;;;;12.52;100.00;97337.56;5071209;28;20024;-76
2021/04/30 02:06:40;;;;;;;10.50;7.68;;;;;;;12.48;100.00;97339.31;5072960;28;20028;-74
2021/04/30 02:09:08;;;;;;;10.85;7.57;;;;;;;12.50;100.00;97337.84;5071326;28;20046;-75
2021/04/30 02:11:34;;;;;;;11.02;8.25;;;;;;;12.45;100.00;97335.28;5071047;28;20115;-74
2021/04/30 02:14:00;;;;;;;14.00;9.98;;;;;;;12.48;100.00;97331.09;5070572;28;20534;-75
2021/04/30 02:16:26;;;;;;;14.65;9.52;;;;;;;12.57;100.00;97338.19;5070289;28;20025;-75
2021/04/30 02:18:51;;;;;;;19.42;10.38;;;;;;;12.47;100.00;97338.50;5068033;28;20024;-74
2021/04/30 02:21:17;;;;;;;9.85;8.13;;;;;;;12.41;100.00;97339.78;5062020;28;20029;-78
2021/04/30 02:23:42;;;;;;;13.57;9.82;;;;;;;12.45;100.00;97329.81;5050333;28;20104;-75
2021/04/30 02:26:08;;;;;;;12.57;9.45;;;;;;;12.46;100.00;97330.63;5063906;28;20112;-75
2021/04/30 02:28:33;;;;;;;14.68;9.32;;;;;;;12.51;100.00;97333.19;5070190;28;20427;-75
2021/04/30 02:30:59;;;;;;;12.23;9.18;;;;;;;12.58;100.00;97328.84;5070178;28;20039;-76
2021/04/30 02:33:24;;;;;;;10.52;8.23;;;;;;;12.67;100.00;97328.81;5070307;28;20037;-75
2021/04/30 02:35:50;;;;;;;12.27;8.65;;;;;;;12.54;100.00;97329.78;5070181;28;20030;-75
2021/04/30 02:38:18;;;;;;;11.52;8.15;;;;;;;12.51;100.00;97320.28;5055991;28;20021;-75
2021/04/30 02:40:46;;;;;;;12.65;9.35;;;;;;;12.55;100.00;97323.19;5061951;28;20036;-75
2021/04/30 02:43:14;;;;;;;12.98;9.80;;;;;;;12.54;100.00;97316.06;5069934;28;20044;-76
2021/04/30 02:45:41;;;;;;;11.23;9.32;;;;;;;12.55;100.00;97334.97;5069761;28;20044;-75
2021/04/30 02:48:13;;;;;;;12.30;9.93;;;;;;;12.62;100.00;97327.06;5070512;28;20064;-75
2021/04/30 02:50:40;;;;;;;9.82;7.90;;;;;;;12.48;100.00;97317.38;5069853;28;20020;-75
2021/04/30 02:53:09;;;;;;;13.80;9.13;;;;;;;12.46;100.00;97325.94;5068564;28;20021;-75
2021/04/30 02:55:34;;;;;;;12.35;7.13;;;;;;;12.58;100.00;97334.31;5070022;28;20162;-75
2021/04/30 02:58:03;;;;;;;8.73;7.70;;;;;;;12.53;100.00;97337.22;5068705;28;20451;-76
2021/04/30 03:00:30;;;;;;;7.60;6.55;;;;;;;12.47;100.00;97324.78;5070195;28;20082;-75
2021/04/30 03:02:56;;;;;;;10.05;7.63;;;;;;;12.43;100.00;97326.59;5069574;28;20506;-75
2021/04/30 03:05:22;;;;;;;7.95;6.80;;;;;;;12.38;100.00;97329.47;5068838;28;20040;-75
2021/04/30 03:07:48;;;;;;;7.85;6.40;;;;;;;12.39;100.00;97333.84;5070411;28;20032;-75
2021/04/30 03:10:15;;;;;;;8.75;6.35;;;;;;;12.36;100.00;97329.00;5070789;28;20472;-75
2021/04/30 03:12:40;;;;;;;9.40;6.32;;;;;;;12.37;100.00;97338.84;5079403;28;20024;-79
2021/04/30 03:15:07;;;;;;;8.98;7.05;;;;;;;12.36;100.00;97339.97;5076179;28;20082;-76
2021/04/30 03:17:33;;;;;;;9.05;7.22;;;;;;;12.32;100.00;97333.50;5073692;28;20135;-76
2021/04/30 03:19:58;;;;;;;12.65;7.82;;;;;;;12.35;100.00;97328.19;5073192;28;20107;-76
2021/04/30 03:22:24;;;;;;;8.30;7.32;;;;;;;12.37;100.00;97327.88;5073329;28;20047;-75
2021/04/30 03:24:49;;;;;;;9.85;7.65;;;;;;;12.40;100.00;97335.47;5073420;28;20025;-75
2021/04/30 03:27:15;;;;;;;8.57;6.72;;;;;;;12.39;100.00;97342.06;5073403;28;20016;-76
2021/04/30 03:29:40;;;;;;;9.45;7.43;;;;;;;12.33;100.00;97335.13;5071937;28;20036;-75
2021/04/30 03:32:09;;;;;;;10.18;7.57;;;;;;;12.39;100.00;97336.56;5073051;28;20365;-75
2021/04/30 03:34:36;;;;;;;11.32;8.80;;;;;;;12.33;100.00;97340.59;5072773;28;20449;-75
2021/04/30 03:37:01;;;;;;;11.95;8.95;;;;;;;12.28;100.00;97348.97;5073315;28;20424;-74
2021/04/30 03:39:27;;;;;;;10.95;8.10;;;;;;;12.24;100.00;97350.75;5073280;28;20032;-75
2021/04/30 03:41:52;;;;;;;10.95;7.95;;;;;;;12.27;100.00;97339.16;5071735;28;20040;-76
2021/04/30 03:44:17;;;;;;;14.48;9.07;;;;;;;12.29;100.00;97342.38;5072123;28;20099;-76
2021/04/30 03:46:43;;;;;;;12.20;9.25;;;;;;;12.23;100.00;97346.41;5073785;28;20031;-77
2021/04/30 03:49:08;;;;;;;9.93;7.93;;;;;;;12.24;100.00;97348.03;5073032;28;20039;-75
2021/04/30 03:51:34;;;;;;;11.43;8.05;;;;;;;12.30;100.00;97346.75;5073178;28;20028;-75
2021/04/30 03:53:59;;;;;;;12.95;8.77;;;;;;;12.25;100.00;97352.34;5073248;28;20029;-74
2021/04/30 03:56:25;;;;;;;12.30;8.93;;;;;;;12.21;100.00;97351.41;5073101;28;20045;-75
2021/04/30 03:58:50;;;;;;;10.60;7.85;;;;;;;12.23;100.00;97360.09;5072919;28;20025;-75
2021/04/30 04:01:16;;;;;;;10.68;8.70;;;;;;;12.25;100.00;97364.13;5073187;28;20032;-75
2021/04/30 04:03:41;;;;;;;8.20;6.88;;;;;;;12.28;100.00;97363.50;5073333;28;20040;-75
2021/04/30 04:06:07;;;;;;;15.90;8.60;;;;;;;12.27;100.00;97366.56;5074185;28;20070;-75
2021/04/30 04:08:32;;;;;;;14.25;8.05;;;;;;;12.23;100.00;97371.06;5074226;28;20039;-76
2021/04/30 04:10:58;;;;;;;9.02;7.80;;;;;;;12.23;100.00;97369.16;5073252;28;20119;-76
2021/04/30 04:13:25;;;;;;;10.18;6.95;;;;;;;12.32;100.00;97375.44;5072328;28;20033;-75
2021/04/30 04:15:51;;;;;;;9.40;7.82;;;;;;;12.34;100.00;97372.41;5071381;28;20451;-75
2021/04/30 04:18:18;;;;;;;10.82;7.95;;;;;;;12.22;100.00;97370.25;5072915;28;20036;-75
2021/04/30 04:20:44;;;;;;;9.18;7.82;;;;;;;12.25;100.00;97380.59;5072561;28;20020;-75
2021/04/30 04:23:10;;;;;;;9.88;7.60;;;;;;;12.23;100.00;97380.13;5071138;28;20030;-76
2021/04/30 04:25:36;;;;;;;11.95;8.52;;;;;;;12.23;100.00;97376.56;5071873;28;20021;-76
2021/04/30 04:28:02;;;;;;;10.00;8.57;;;;;;;12.28;100.00;97392.84;5072787;28;20416;-75
2021/04/30 04:30:28;;;;;;;13.60;8.07;;;;;;;12.27;100.00;97397.56;5072617;28;20032;-76
2021/04/30 04:32:54;;;;;;;14.57;9.52;;;;;;;12.33;100.00;97403.69;5072505;28;20032;-76
2021/04/30 04:35:19;;;;;;;14.35;9.35;;;;;;;12.39;100.00;97402.41;5071663;28;20028;-75
2021/04/30 04:37:45;;;;;;;11.48;8.77;;;;;;;12.47;100.00;97407.06;5072048;28;20033;-75
2021/04/30 04:40:12;;;;;;;10.98;8.25;;;;;;;12.47;100.00;97404.34;5072416;28;20028;-77
2021/04/30 04:42:41;;;;;;;13.82;10.38;;;;;;;12.50;100.00;97406.44;5072727;28;20032;-77
2021/04/30 04:45:07;;;;;;;11.35;8.38;;;;;;;12.60;100.00;97408.88;5072273;28;20036;-74
2021/04/30 04:47:33;;;;;;;11.60;8.98;;;;;;;12.55;100.00;97403.56;5072611;28;20031;-75
2021/04/30 04:49:58;;;;;;;17.25;10.13;;;;;;;12.51;100.00;97413.56;5071996;28;20058;-75
2021/04/30 04:52:24;;;;;;;15.77;10.23;;;;;;;12.56;100.00;97418.09;5071436;28;20086;-75
2021/04/30 04:54:49;;;;;;;17.55;10.25;;;;;;;12.62;100.00;97419.53;5072109;28;20391;-79
2021/04/30 04:57:15;;;;;;;10.80;9.05;;;;;;;12.70;100.00;97422.28;5071844;28;20464;-75
2021/04/30 04:59:40;;;;;;;10.82;8.60;;;;;;;12.74;100.00;97415.03;5071757;28;20055;-75
2021/04/30 05:02:05;;;;;;;13.43;9.68;;;;;;;12.72;100.00;97417.28;5071825;28;20127;-75
2021/04/30 05:04:31;;;;;;;17.02;10.63;;;;;;;12.79;100.00;97425.84;5066904;28;20028;-78
2021/04/30 05:06:56;;;;;;;16.02;10.60;;;;;;;12.72;100.00;97420.00;5052757;28;20029;-74
2021/04/30 05:09:22;;;;;;;13.38;9.40;;;;;;;12.78;100.00;97421.47;5056637;28;20020;-75
2021/04/30 05:11:48;;;;;;;21.38;12.05;;;;;;;12.87;100.00;97425.03;5072242;28;20032;-75
2021/04/30 05:14:13;;;;;;;20.25;11.93;;;;;;;12.98;100.00;97431.00;5071849;28;20086;-76
2021/04/30 05:16:39;;;;;;;15.48;11.27;;;;;;;13.01;100.00;97424.06;5071920;28;20021;-75
2021/04/30 05:19:05;;;;;;;19.75;12.63;;;;;;;13.03;100.00;97432.78;5069460;28;20033;-76
2021/04/30 05:21:31;;;;;;;18.58;11.75;;;;;;;13.02;100.00;97436.66;5065913;28;20028;-74
2021/04/30 05:23:58;;;;;;;16.17;11.35;;;;;;;13.06;100.00;97440.38;5050948;28;20032;-75
2021/04/30 05:26:27;;;;;;;17.02;11.98;;;;;;;13.08;100.00;97438.94;5051005;28;20117;-80
2021/04/30 05:28:53;;;;;;;20.15;11.68;;;;;;;13.14;100.00;97443.16;5051825;28;20063;-75
2021/04/30 05:31:18;;;;;;;18.73;10.93;;;;;;;13.16;100.00;97440.06;5056030;28;20025;-79
2021/04/30 05:33:44;;;;;;;16.25;10.98;;;;;;;13.30;100.00;97440.69;5055990;28;20028;-77
2021/04/30 05:36:09;;;;;;;15.25;10.35;;;;;;;13.66;100.00;97443.03;5052167;28;20025;-79
2021/04/30 05:38:34;;;;;;;13.73;9.25;;;;;;;14.06;100.00;97440.81;5051245;28;20021;-80
2021/04/30 05:41:00;;;;;;;12.13;8.75;;;;;;;14.20;100.00;97441.38;5049742;28;20035;-81
2021/04/30 05:43:25;;;;;;;9.32;7.15;;;;;;;14.20;100.00;97438.63;5050546;28;20021;-76
2021/04/30 05:45:51;;;;;;;7.38;6.40;;;;;;;14.02;100.00;97437.91;5066348;28;20036;-76
2021/04/30 05:48:16;;;;;;;11.82;7.03;;;;;;;14.03;100.00;97438.72;5050014;28;20447;-75
2021/04/30 05:50:41;;;;;;;10.10;6.85;;;;;;;13.90;100.00;97438.63;5050630;28;20040;-77
2021/04/30 05:53:07;;;;;;;10.10;6.60;;;;;;;13.82;100.00;97436.69;5050902;28;20102;-74
2021/04/30 05:55:32;;;;;;;10.05;7.20;;;;;;;14.09;100.00;97438.22;5050754;28;20099;-74
2021/04/30 05:57:58;;;;;;;6.45;5.63;;;;;;;14.55;100.00;97451.09;5056207;28;20086;-76
2021/04/30 06:00:23;;;;;;;10.35;6.43;;;;;;;14.67;99.83;97440.16;5069666;28;20135;-75
2021/04/30 06:02:51;;;;;;;11.55;7.82;;;;;;;14.79;99.48;97448.50;5069047;28;20044;-76
2021/04/30 06:05:16;;;;;;;11.30;7.05;;;;;;;14.95;98.18;97449.50;5070648;28;20020;-79
2021/04/30 06:07:42;;;;;;;9.18;6.28;;;;;;;14.95;97.68;97449.50;5069990;28;20115;-74
2021/04/30 06:10:08;;;;;;;10.68;6.15;;;;;;;14.98;97.70;97446.09;5068460;28;20016;-75
2021/04/30 06:12:34;;;;;;;7.47;5.30;;;;;;;15.29;97.43;97451.16;5066693;28;20124;-76
2021/04/30 06:15:00;;;;;;;8.95;7.15;;;;;;;15.68;94.33;97455.34;5069559;28;20539;-77
2021/04/30 06:17:25;;;;;;;7.57;5.63;;;;;;;15.53;94.47;97454.06;5070695;28;20020;-77
2021/04/30 06:19:51;;;;;;;7.93;5.78;;;;;;;15.80;94.44;97458.16;5072682;28;20020;-76
2021/04/30 06:22:16;;;;;;;12.73;5.60;;;;;;;15.64;93.39;97454.41;5072908;28;20078;-83
2021/04/30 06:24:42;;;;;;;9.75;4.55;;;;;;;15.92;92.43;97474.72;5078895;28;20099;-87
2021/04/30 06:27:07;;;;;;;6.88;4.90;;;;;;;16.30;88.66;97470.84;5075230;28;20032;-84
2021/04/30 06:29:33;;;;;;;6.85;4.63;;;;;;;16.16;90.87;97467.63;5075729;28;20066;-83
2021/04/30 06:32:00;;;;;;;4.93;3.85;;;;;;;16.01;90.55;97480.94;5075540;28;20032;-84
2021/04/30 06:34:27;;;;;;;9.30;4.32;;;;;;;15.82;90.94;97464.13;5108611;28;20087;-89
2021/04/30 06:36:54;;;;;;;5.03;4.22;;;;;;;15.87;92.41;97485.16;5087958;28;20024;-85
2021/04/30 06:39:24;;;;;;;6.35;4.35;;;;;;;15.80;90.19;97466.41;5103583;28;20035;-85
2021/04/30 06:41:50;;;;;;;7.57;5.10;;;;;;;15.80;91.58;97479.41;5108710;28;20059;-80
2021/04/30 06:44:16;;;;;;;10.18;4.38;;;;;;;15.75;90.32;97468.59;5095885;28;20062;-84
2021/04/30 06:46:41;;;;;;;5.18;4.68;;;;;;;15.74;91.02;97450.44;5098098;28;20005;-83
2021/04/30 06:49:16;;;;;;;5.95;5.35;;;;;;;15.68;90.73;97458.13;5099652;28;20005;-81
2021/04/30 06:51:41;;;;;;;5.57;5.07;;;;;;;15.63;89.38;97466.59;5101141;28;20025;-82
2021/04/30 06:54:08;;;;;;;6.68;4.38;;;;;;;15.52;90.28;97462.66;5101228;28;20063;-83
2021/04/30 06:56:33;;;;;;;6.40;5.05;;;;;;;15.41;90.39;97478.00;5100103;28;20004;-80
2021/04/30 06:58:59;;;;;;;7.03;4.30;;;;;;;15.24;93.04;97484.44;5088084;28;20021;-88
2021/04/30 07:01:25;;;;;;;8.30;4.88;;;;;;;15.34;93.59;97477.72;5078101;28;20119;-80
2021/04/30 07:03:50;;;;;;;7.00;4.63;;;;;;;15.83;90.48;97490.56;5080451;28;20089;-81
2021/04/30 07:06:19;;;;;;;4.97;4.22;;;;;;;15.83;89.59;97490.56;5091939;28;20074;-84
2021/04/30 07:08:44;;;;;;;5.43;4.15;;;;;;;15.97;89.95;97479.22;5071831;28;20033;-84
2021/04/30 07:11:10;;;;;;;10.10;4.78;;;;;;;16.08;90.70;97486.72;5084842;28;20035;-82
2021/04/30 07:13:36;;;;;;;7.88;4.55;;;;;;;16.14;90.05;97492.00;5075782;28;20481;-83
2021/04/30 07:16:05;;;;;;;7.25;4.90;;;;;;;16.40;86.80;97493.31;5089176;28;20051;-83
2021/04/30 07:18:31;;;;;;;4.78;4.28;;;;;;;16.58;85.77;97480.91;5076137;28;20473;-83
2021/04/30 07:20:58;;;;;;;6.50;4.05;;;;;;;16.86;83.89;97482.94;5074259;28;20025;-85
2021/04/30 07:23:23;;;;;;;9.13;3.60;;;;;;;16.84;84.00;97475.00;5099337;28;20029;-89
2021/04/30 07:25:50;;;;;;;8.77;4.20;;;;;;;16.99;83.42;97495.59;5081622;28;20033;-82
2021/04/30 07:28:16;;;;;;;6.63;4.43;;;;;;;16.95;84.09;97495.47;5088172;28;20025;-88
2021/04/30 07:30:42;;;;;;;4.53;2.83;;;;;;;17.30;84.18;97495.75;5081181;28;20028;-85
2021/04/30 07:33:11;;;;;;;5.50;2.78;;;;;;;17.38;80.76;97489.28;5070212;28;20396;-80
2021/04/30 07:35:36;;;;;;;3.13;1.95;;;;;;;17.91;78.95;97501.06;5087175;28;20027;-85
2021/04/30 07:38:04;;;;;;;2.63;1.88;;;;;;;18.32;75.06;97494.25;5068023;28;21457;-80
2021/04/30 07:40:29;;;;;;;3.88;1.98;;;;;;;18.60;73.98;97500.53;5075090;28;20024;-75
2021/04/30 07:42:56;;;;;;;2.10;1.60;;;;;;;19.08;72.29;97502.84;5075303;28;20067;-83
2021/04/30 07:45:21;;;;;;;3.28;1.48;;;;;;;19.95;69.24;97485.69;5075466;28;20032;-86
2021/04/30 07:47:50;;;;;;;1.92;1.42;;;;;;;19.78;66.17;97505.56;5091029;28;20082;-80
2021/04/30 07:50:15;;;;;;;3.90;2.38;;;;;;;19.62;67.56;97490.94;5073670;28;20099;-82
2021/04/30 07:52:40;;;;;;;6.43;1.90;;;;;;;19.54;69.83;97497.53;5070766;28;20036;-82
2021/04/30 07:55:06;;;;;;;1.88;1.40;;;;;;;19.34;70.81;97491.13;5087438;28;20496;-81
2021/04/30 07:57:34;;;;;;;4.07;1.73;;;;;;;19.58;67.16;97503.94;5067644;28;20459;-77
2021/04/30 08:00:00;;;;;;;1.05;1.00;;;;;;;20.23;65.18;97516.75;5079947;28;20063;-82
2021/04/30 08:02:26;;;;;;;4.65;1.42;;;;;;;20.78;62.41;97515.34;5072160;28;20020;-76
2021/04/30 08:04:51;;;;;;;3.53;2.05;;;;;;;20.73;62.10;97512.88;5070056;28;20358;-78
2021/04/30 08:07:17;;;;;;;3.83;1.25;;;;;;;20.40;62.12;97523.81;5071426;28;20050;-79
2021/04/30 08:09:42;;;;;;;1.33;1.20;;;;;;;19.65;65.07;97515.19;5071451;28;20039;-73
2021/04/30 08:12:09;;;;;;;2.28;1.20;;;;;;;20.64;62.18;97519.88;5072950;28;20021;-76
2021/04/30 08:14:34;;;;;;;3.45;1.63;;;;;;;21.06;60.18;97516.94;5077725;28;20024;-81
2021/04/30 08:17:00;;;;;;;1.98;1.88;;;;;;;20.35;62.39;97518.56;5061042;28;20108;-79
2021/04/30 08:19:26;;;;;;;1.67;1.40;;;;;;;20.21;62.84;97524.63;5070788;28;20036;-79
2021/04/30 08:21:52;;;;;;;2.45;1.30;;;;;;;20.21;63.73;97516.31;5070422;28;20024;-79
2021/04/30 08:24:18;;;;;;;2.00;1.50;;;;;;;20.17;62.81;97523.75;5068497;28;20016;-77
2021/04/30 08:26:44;;;;;;;3.72;1.98;;;;;;;20.47;61.36;97520.34;5069908;28;20036;-83
2021/04/30 08:29:10;;;;;;;4.03;1.40;;;;;;;20.47;61.49;97520.34;5069305;28;20032;-80
2021/04/30 08:31:36;;;;;;;3.83;1.48;;;;;;;21.75;58.30;97524.72;5069608;28;20052;-80
2021/04/30 08:34:02;;;;;;;4.15;1.17;;;;;;;21.21;58.72;97527.94;5074846;28;20040;-85
2021/04/30 08:36:27;;;;;;;3.20;1.15;;;;;;;20.00;60.69;97535.34;5067562;28;20020;-84
2021/04/30 08:38:53;;;;;;;3.35;1.27;;;;;;;19.32;64.10;97523.19;5075614;28;20415;-83
2021/04/30 08:41:19;;;;;;;3.33;1.27;;;;;;;19.23;65.24;97524.16;5081306;28;20033;-79
2021/04/30 08:43:46;;;;;;;2.10;1.27;;;;;;;19.40;63.92;97527.72;5069383;28;20040;-80
2021/04/30 08:46:13;;;;;;;2.78;1.35;;;;;;;20.94;59.21;97531.88;5069359;28;20024;-75
2021/04/30 08:48:39;;;;;;;2.15;1.92;;;;;;;21.83;55.70;97545.09;5068720;28;20024;-75
2021/04/30 08:51:05;;;;;;;2.42;1.02;;;;;;;21.17;56.68;97538.25;5074578;28;20035;-82
2021/04/30 08:53:31;;;;;;;1.50;1.05;;;;;;;21.70;56.22;97544.56;5075225;28;20032;-80
2021/04/30 08:56:01;;;;;;;3.13;1.00;;;;;;;21.02;58.05;97536.38;5070407;28;20024;-78
2021/04/30 08:58:27;;;;;;;3.58;1.30;;;;;;;21.17;57.92;97538.25;5069560;28;20031;-77
2021/04/30 09:00:56;;;;;;;3.00;1.23;;;;;;;20.84;58.47;97544.44;5068390;28;20464;-75
2021/04/30 09:03:22;;;;;;;3.80;1.10;;;;;;;20.80;57.60;97528.84;5071031;28;20032;-77
2021/04/30 09:05:51;;;;;;;2.67;1.05;;;;;;;21.21;57.29;97533.50;5077642;28;20047;-84
2021/04/30 09:08:18;;;;;;;2.65;1.17;;;;;;;20.88;57.12;97522.25;5081654;28;20020;-82
2021/04/30 09:10:49;;;;;;;2.10;1.20;;;;;;;21.25;57.07;97553.84;5074450;28;20032;-84
2021/04/30 09:13:20;;;;;;;2.88;1.15;;;;;;;21.47;56.93;97543.81;5074117;28;20032;-82
2021/04/30 09:15:48;;;;;;;1.95;1.23;;;;;;;21.12;57.54;97541.31;5070612;28;20032;-83
2021/04/30 09:18:17;;;;;;;3.22;0.90;;;;;;;22.09;54.13;97539.47;5073409;28;20032;-79
2021/04/30 09:20:48;;;;;;;1.55;1.00;;;;;;;22.27;54.34;97534.09;5078178;28;20021;-85
2021/04/30 09:23:49;;;;;;;3.00;1.15;;;;;;;21.97;54.30;97536.13;5079726;28;20037;-79
2021/04/30 09:26:33;;;;;;;1.98;1.17;;;;;;;20.89;55.27;97546.13;4965552;28;20036;-80
2021/04/30 09:29:05;;;;;;;2.38;1.13;;;;;;;21.86;54.35;97544.34;5061172;28;20036;-81
2021/04/30 09:31:38;;;;;;;1.08;0.80;;;;;;;23.03;50.66;97545.56;5074565;28;20389;-80
2021/04/30 09:34:24;;;;;;;1.48;0.80;;;;;;;24.66;46.11;97547.16;5059602;28;20024;-84
2021/04/30 09:43:14;;;;;;;2.22;1.05;;;;;;;24.21;44.95;97541.09;5102235;22;20054;-83
2021/04/30 09:45:40;;;;;;;6.60;1.23;;;;;;;22.36;50.57;97538.19;5077410;28;20067;-84
2021/04/30 09:48:09;;;;;;;4.95;1.08;;;;;;;21.42;53.17;97543.34;5073412;28;20103;-80
2021/04/30 09:50:35;;;;;;;3.50;1.17;;;;;;;21.12;53.61;97527.41;5052785;28;20043;-78
2021/04/30 09:53:10;;;;;;;1.50;0.85;;;;;;;20.71;55.38;97522.75;5069804;28;20115;-82
2021/04/30 09:56:05;;;;;;;1.73;1.05;;;;;;;21.73;53.37;97531.84;5056647;28;20019;-86
2021/04/30 09:58:44;;;;;;;2.00;1.60;;;;;;;23.40;49.20;97526.72;5231370;22;20057;-83
2021/04/30 10:01:22;;;;;;;2.53;1.05;;;;;;;24.02;46.83;97538.59;5047845;28;20017;-78
2021/04/30 10:03:47;;;;;;;3.30;0.93;;;;;;;23.22;48.54;97526.56;5063898;28;20127;-77
2021/04/30 10:06:17;;;;;;;3.50;1.23;;;;;;;22.98;50.32;97538.38;5043720;28;20183;-76
2021/04/30 10:09:05;;;;;;;1.63;0.93;;;;;;;21.97;51.62;97525.81;5045939;28;20033;-75
2021/04/30 10:11:32;;;;;;;1.05;0.95;;;;;;;21.41;53.75;97525.03;5049394;28;20033;-77
2021/04/30 10:13:58;;;;;;;2.17;1.00;;;;;;;21.52;53.61;97518.44;5047560;28;20029;-78
2021/04/30 10:16:24;;;;;;;1.25;1.10;;;;;;;21.41;54.06;97513.91;5047907;28;20027;-79
2021/04/30 10:18:49;;;;;;;1.27;0.82;;;;;;;20.93;55.15;97521.91;5048311;28;20028;-78
2021/04/30 10:21:17;;;;;;;1.15;1.05;;;;;;;21.11;54.76;97505.56;5042767;28;20108;-75
2021/04/30 10:23:49;;;;;;;1.27;1.00;;;;;;;20.51;56.37;97505.38;5045226;28;20033;-76
2021/04/30 10:26:19;;;;;;;2.67;1.48;;;;;;;21.36;55.87;97510.28;5047006;28;20025;-76
2021/04/30 10:28:51;;;;;;;2.05;1.27;;;;;;;22.64;51.37;97509.78;5047534;28;20056;-80
2021/04/30 10:31:27;;;;;;;2.60;0.88;;;;;;;22.46;50.84;97513.59;5040221;28;21192;-78
2021/04/30 10:34:09;;;;;;;2.15;0.93;;;;;;;22.99;48.92;97512.06;5049714;28;20081;-80
2021/04/30 10:36:58;;;;;;;2.03;1.15;;;;;;;22.17;51.10;97502.16;5065058;28;20060;-80
2021/04/30 10:39:32;;;;;;;1.25;0.82;;;;;;;21.47;53.65;97507.63;5046336;28;20040;-79
2021/04/30 10:41:58;;;;;;;2.95;1.70;;;;;;;21.44;55.29;97513.16;5047478;28;20021;-78
2021/04/30 10:44:28;;;;;;;1.55;0.93;;;;;;;21.20;54.85;97506.88;5046139;28;20119;-80
2021/04/30 10:47:16;;;;;;;1.70;0.90;;;;;;;20.72;54.42;97507.69;5046985;28;20047;-78
2021/04/30 10:50:03;;;;;;;3.25;0.95;;;;;;;20.56;55.24;97504.22;5043013;28;20490;-79
2021/04/30 10:52:29;;;;;;;2.05;0.90;;;;;;;20.54;57.69;97498.25;5055733;28;20029;-82
2021/04/30 10:55:06;;;;;;;2.03;0.90;;;;;;;20.49;58.84;97495.78;5053322;28;20017;-80
2021/04/30 10:57:55;;;;;;;3.20;0.98;;;;;;;20.41;59.82;97494.06;5053254;28;20064;-80
2021/04/30 11:00:44;;;;;;;2.08;1.10;;;;;;;19.93;61.29;97493.56;5046066;28;20029;-75
2021/04/30 11:03:18;;;;;;;3.50;1.40;;;;;;;19.83;61.63;97499.69;5046922;28;20020;-75
2021/04/30 11:06:10;;;;;;;3.47;1.27;;;;;;;19.49;64.95;97509.72;5054212;28;20056;-75
2021/04/30 11:08:46;;;;;;;3.60;1.70;;;;;;;19.48;67.27;97499.00;5046093;28;20045;-76
2021/04/30 11:11:12;;;;;;;2.88;1.52;;;;;;;19.61;68.17;97501.25;5042714;28;20025;-76
2021/04/30 11:13:37;;;;;;;1.55;0.88;;;;;;;19.69;65.53;97514.13;5045714;28;20033;-75
2021/04/30 11:16:02;;;;;;;1.95;0.88;;;;;;;19.90;63.99;97510.94;5061009;28;20051;-75
2021/04/30 11:18:30;;;;;;;3.67;1.23;;;;;;;20.35;63.02;97515.00;5046251;28;20397;-76
2021/04/30 11:21:10;;;;;;;1.70;1.60;;;;;;;21.18;62.14;97506.44;5045559;28;20071;-75
2021/04/30 11:23:35;;;;;;;1.63;1.25;;;;;;;21.35;58.24;97497.56;5064605;28;20044;-83
2021/04/30 11:26:03;;;;;;;1.83;1.25;;;;;;;21.60;56.57;97489.53;5068928;28;20029;-87
2021/04/30 11:28:34;;;;;;;1.20;0.93;;;;;;;21.88;54.74;97489.06;5066698;28;20143;-82
2021/04/30 11:31:07;;;;;;;4.75;0.93;;;;;;;22.24;53.31;97490.28;5053966;28;20032;-83
2021/04/30 11:33:36;;;;;;;2.58;1.30;;;;;;;22.24;52.73;97485.47;5075170;28;20064;-86